Time;durP1;ratioP1;P1;durP2;ratioP2;P2;SDS_P1;SDS_P2;PMS_P1;PMS_P2;Temp;Humidity;BMP_temperature;BMP_pressure;BME280_temperature;BME280_humidity;BME280_pressure;Samples;Min_cycle;Max_cycle;Signal;HPM_P1;HPM_P2
2022/12/04 00:00:33;;;;;;;55.40;27.50;;;0.70;1.00;;;;;;5023117;28;21145;-80
2022/12/04 00:03:00;;;;;;;54.67;29.03;;;0.70;1.00;;;;;;5042300;28;20551;-79
2022/12/04 00:05:27;;;;;;;49.43;25.47;;;0.70;1.00;;;;;;5039465;28;20242;-80
2022/12/04 00:07:54;;;;;;;52.17;27.60;;;1.60;1.00;;;;;;5042083;28;20189;-81
2022/12/04 00:10:21;;;;;;;51.87;28.67;;;0.70;1.00;;;;;;5033512;28;20212;-81
2022/12/04 00:12:50;;;;;;;48.80;26.90;;;0.70;1.00;;;;;;5027864;28;20192;-81
2022/12/04 00:15:18;;;;;;;51.03;28.43;;;0.70;1.00;;;;;;5074423;28;20199;-81
2022/12/04 00:17:54;;;;;;;50.73;27.37;;;0.80;1.00;;;;;;5060783;28;20193;-81
2022/12/04 00:20:22;;;;;;;48.70;25.80;;;1.60;1.00;;;;;;5057211;28;20205;-81
2022/12/04 00:22:50;;;;;;;53.73;29.07;;;0.70;1.00;;;;;;5044727;28;20198;-81
2022/12/04 00:25:17;;;;;;;49.60;26.10;;;0.80;1.00;;;;;;5033174;28;20196;-80
2022/12/04 00:27:45;;;;;;;54.73;27.50;;;1.90;1.00;;;;;;5040901;28;20200;-81
2022/12/04 00:30:13;;;;;;;53.00;27.30;;;0.60;1.00;;;;;;5061054;28;20235;-81
2022/12/04 00:32:43;;;;;;;44.77;24.73;;;0.80;1.00;;;;;;5027771;28;20207;-81
2022/12/04 00:35:15;;;;;;;49.23;26.23;;;-1.00;1.00;;;;;;5047060;28;20241;-80
2022/12/04 00:37:43;;;;;;;46.90;25.67;;;0.70;1.00;;;;;;5059651;28;20190;-83
2022/12/04 00:40:11;;;;;;;46.67;26.07;;;0.80;1.00;;;;;;5062142;28;20180;-80
2022/12/04 00:42:39;;;;;;;47.20;24.47;;;0.90;1.00;;;;;;5048835;28;20196;-79
2022/12/04 00:45:07;;;;;;;44.77;24.93;;;2.40;1.00;;;;;;5056227;28;20624;-79
2022/12/04 00:47:34;;;;;;;51.73;25.73;;;0.70;1.00;;;;;;5088894;22;20216;-64
2022/12/04 00:50:01;;;;;;;46.13;24.80;;;0.80;1.00;;;;;;5055624;23;20281;-66
2022/12/04 00:52:28;;;;;;;44.60;25.03;;;0.80;1.00;;;;;;5041220;28;20196;-64
2022/12/04 00:54:55;;;;;;;44.90;24.70;;;0.80;1.00;;;;;;5037486;28;20523;-64
2022/12/04 00:57:22;;;;;;;45.40;24.20;;;0.90;1.00;;;;;;5030126;28;20345;-65
2022/12/04 00:59:49;;;;;;;41.30;22.37;;;0.80;1.00;;;;;;5038078;28;20226;-64
2022/12/04 01:02:16;;;;;;;44.50;24.53;;;0.80;1.00;;;;;;5045929;28;20195;-64
2022/12/04 01:04:43;;;;;;;41.43;22.37;;;0.80;1.00;;;;;;5034466;28;20219;-65
2022/12/04 01:07:09;;;;;;;43.37;22.73;;;0.80;1.00;;;;;;5037094;28;20199;-62
2022/12/04 01:09:36;;;;;;;42.83;23.53;;;0.80;1.00;;;;;;5050791;28;20204;-62
2022/12/04 01:12:03;;;;;;;47.63;23.20;;;0.80;1.00;;;;;;5037152;28;20194;-62
2022/12/04 01:14:31;;;;;;;37.60;20.70;;;0.80;1.00;;;;;;5053104;28;20689;-62
2022/12/04 01:16:58;;;;;;;39.70;21.67;;;0.90;1.00;;;;;;5038457;28;20750;-62
2022/12/04 01:19:25;;;;;;;39.10;21.87;;;0.80;1.00;;;;;;5041084;28;20270;-64
2022/12/04 01:21:52;;;;;;;51.93;31.20;;;0.90;1.00;;;;;;5042838;28;20202;-63
2022/12/04 01:24:20;;;;;;;35.83;22.40;;;0.90;1.00;;;;;;5036487;28;20199;-63
2022/12/04 01:26:47;;;;;;;43.63;23.43;;;0.90;1.00;;;;;;5044732;28;20672;-63
2022/12/04 01:29:14;;;;;;;55.30;27.87;;;0.80;1.00;;;;;;5019432;28;20733;-67
2022/12/04 01:31:40;;;;;;;39.13;22.00;;;0.80;1.00;;;;;;5041878;28;20730;-63
2022/12/04 01:34:08;;;;;;;37.83;21.27;;;0.90;1.00;;;;;;5036181;28;20214;-62
2022/12/04 01:36:34;;;;;;;40.03;21.97;;;0.90;1.00;;;;;;5043922;28;20198;-63
2022/12/04 01:39:01;;;;;;;37.20;20.53;;;0.90;1.00;;;;;;5060710;28;20282;-63
2022/12/04 01:41:31;;;;;;;38.43;22.30;;;0.90;1.00;;;;;;5045838;28;20621;-62
2022/12/04 01:44:23;;;;;;;38.77;21.13;;;0.90;1.00;;;;;;5035231;28;20571;-63
2022/12/04 01:46:56;;;;;;;37.33;18.97;;;0.90;1.00;;;;;;5038249;28;20209;-63
2022/12/04 01:49:35;;;;;;;40.13;22.77;;;0.90;1.00;;;;;;5039657;28;20227;-65
2022/12/04 01:52:10;;;;;;;33.93;20.57;;;0.90;1.00;;;;;;5061887;28;20498;-62
2022/12/04 01:54:42;;;;;;;31.97;18.67;;;0.90;1.00;;;;;;5038549;28;20191;-64
2022/12/04 01:57:18;;;;;;;34.77;18.80;;;0.90;1.00;;;;;;5043586;28;20234;-63
2022/12/04 02:00:10;;;;;;;32.63;19.07;;;1.00;1.00;;;;;;5045447;28;20205;-63
2022/12/04 02:02:39;;;;;;;33.67;19.23;;;1.00;1.00;;;;;;5037379;28;20663;-63
2022/12/04 02:05:10;;;;;;;34.80;20.40;;;1.00;1.00;;;;;;5044476;28;20218;-63
2022/12/04 02:07:40;;;;;;;33.47;19.47;;;1.00;1.00;;;;;;5045331;28;20192;-63
2022/12/04 02:10:08;;;;;;;33.43;19.83;;;1.00;1.00;;;;;;5034248;28;20211;-64
2022/12/04 02:12:57;;;;;;;38.83;20.57;;;1.00;1.00;;;;;;5039954;28;20601;-63
2022/12/04 02:15:35;;;;;;;38.00;20.60;;;0.90;1.00;;;;;;5062021;28;20291;-63
2022/12/04 02:18:12;;;;;;;35.90;21.40;;;0.90;1.00;;;;;;5045131;28;20395;-63
2022/12/04 02:21:04;;;;;;;37.37;21.40;;;0.90;1.00;;;;;;5059559;28;20206;-63
2022/12/04 02:23:59;;;;;;;37.87;20.63;;;0.90;1.00;;;;;;5043057;28;20275;-63
2022/12/04 02:26:57;;;;;;;36.47;19.53;;;0.90;1.00;;;;;;5045233;28;20199;-63
2022/12/04 02:29:39;;;;;;;40.07;21.37;;;0.90;1.00;;;;;;5044666;28;20211;-63
2022/12/04 02:32:17;;;;;;;38.27;21.13;;;0.90;1.00;;;;;;5042664;28;20218;-63
2022/12/04 02:34:51;;;;;;;36.53;21.43;;;0.90;1.00;;;;;;5041786;28;20195;-62
2022/12/04 02:37:50;;;;;;;39.63;22.20;;;0.90;1.00;;;;;;5046444;28;20616;-63
2022/12/04 02:40:26;;;;;;;40.03;21.07;;;0.80;1.00;;;;;;5042658;28;20231;-69
2022/12/04 02:42:59;;;;;;;41.47;22.23;;;0.80;1.00;;;;;;5060920;28;20203;-63
2022/12/04 02:45:31;;;;;;;42.47;23.40;;;0.90;1.00;;;;;;5045061;28;20675;-63
2022/12/04 02:48:01;;;;;;;40.77;23.03;;;0.80;1.00;;;;;;5045110;28;20192;-63
2022/12/04 02:50:32;;;;;;;43.33;22.07;;;0.90;1.00;;;;;;5042469;28;20269;-63
2022/12/04 02:53:05;;;;;;;39.60;21.77;;;0.80;1.00;;;;;;5045168;28;20176;-64
2022/12/04 02:55:37;;;;;;;43.57;21.87;;;0.90;1.00;;;;;;5040347;28;20192;-64
2022/12/04 02:58:13;;;;;;;43.30;22.80;;;0.90;1.00;;;;;;5044056;28;20275;-64
2022/12/04 03:00:44;;;;;;;37.80;22.07;;;0.90;1.00;;;;;;5049735;28;20195;-64
2022/12/04 03:03:25;;;;;;;40.47;22.23;;;0.80;1.00;;;;;;5042793;28;20203;-64
2022/12/04 03:06:05;;;;;;;41.13;21.87;;;0.70;1.00;;;;;;5040119;28;20219;-63
2022/12/04 03:08:41;;;;;;;38.87;23.63;;;0.80;1.00;;;;;;5061076;28;20223;-63
2022/12/04 03:11:08;;;;;;;40.97;22.73;;;0.80;1.00;;;;;;5044430;28;20230;-64
2022/12/04 03:13:41;;;;;;;42.57;23.97;;;0.80;1.00;;;;;;5045179;28;20195;-64
2022/12/04 03:16:24;;;;;;;39.50;22.27;;;0.80;1.00;;;;;;5043748;28;20195;-64
2022/12/04 03:19:06;;;;;;;42.80;23.80;;;0.80;1.00;;;;;;5043362;28;20234;-64
2022/12/04 03:21:37;;;;;;;41.43;22.37;;;0.80;1.00;;;;;;5044791;28;20494;-64
2022/12/04 03:24:13;;;;;;;43.87;23.17;;;0.80;1.00;;;;;;5043532;28;20215;-62
2022/12/04 03:26:46;;;;;;;42.43;22.87;;;0.80;1.00;;;;;;5058524;28;20226;-63
2022/12/04 03:29:30;;;;;;;39.80;21.47;;;0.80;1.00;;;;;;5039096;28;20274;-64
2022/12/04 03:32:10;;;;;;;38.60;21.30;;;0.80;1.00;;;;;;5058670;28;20886;-58
2022/12/04 03:34:42;;;;;;;35.83;21.07;;;0.80;1.00;;;;;;5036584;28;20265;-61
2022/12/04 03:37:17;;;;;;;39.77;20.97;;;0.80;1.00;;;;;;5043588;28;20278;-60
2022/12/04 03:40:05;;;;;;;36.30;20.90;;;0.80;1.00;;;;;;5044300;28;20225;-63
2022/12/04 03:42:50;;;;;;;42.50;21.33;;;0.80;1.00;;;;;;5044764;28;20238;-62
2022/12/04 03:45:29;;;;;;;40.00;22.17;;;0.80;1.00;;;;;;5046522;28;20205;-61
2022/12/04 03:48:06;;;;;;;41.43;22.20;;;0.80;1.00;;;;;;5043258;28;20187;-62
2022/12/04 03:50:40;;;;;;;37.10;20.23;;;0.80;1.00;;;;;;5043217;28;20223;-61
2022/12/04 03:53:29;;;;;;;38.80;21.30;;;0.80;1.00;;;;;;5042825;28;20711;-59
2022/12/04 03:56:10;;;;;;;37.37;20.40;;;0.80;1.00;;;;;;5044763;28;20283;-61
2022/12/04 03:58:43;;;;;;;37.63;20.73;;;0.80;1.00;;;;;;5043310;28;20282;-61
2022/12/04 04:01:12;;;;;;;42.47;22.13;;;0.80;1.00;;;;;;5025280;28;20211;-59
2022/12/04 04:03:47;;;;;;;37.57;20.17;;;0.80;1.00;;;;;;5043123;28;20195;-60
2022/12/04 04:06:18;;;;;;;36.70;20.63;;;0.80;1.00;;;;;;5043455;28;20293;-59
2022/12/04 04:08:50;;;;;;;43.33;23.77;;;0.80;1.00;;;;;;5033346;28;20204;-64
2022/12/04 04:11:29;;;;;;;36.77;21.90;;;0.90;1.00;;;;;;5040818;28;20769;-61
2022/12/04 04:25:26;;;;;;;35.30;19.83;;;0.90;1.00;;;;;;5040686;28;20678;-60
2022/12/04 04:27:55;;;;;;;35.30;20.67;;;0.90;1.00;;;;;;5035997;28;20561;-61
2022/12/04 04:30:23;;;;;;;35.83;19.20;;;0.80;1.00;;;;;;5041156;28;20298;-61
2022/12/04 04:33:15;;;;;;;30.27;18.73;;;0.90;1.00;;;;;;5043468;28;20234;-61
2022/12/04 04:35:57;;;;;;;33.53;18.30;;;0.90;1.00;;;;;;5044261;28;20279;-62
2022/12/04 04:38:35;;;;;;;33.37;17.93;;;0.90;1.00;;;;;;5039496;28;20553;-61
2022/12/04 04:41:09;;;;;;;35.97;18.77;;;0.90;1.00;;;;;;5042204;28;20196;-61
2022/12/04 04:43:54;;;;;;;35.67;19.33;;;0.90;1.00;;;;;;5044383;28;20199;-60
2022/12/04 04:46:31;;;;;;;35.27;19.47;;;0.90;1.00;;;;;;5041257;28;20606;-60
2022/12/04 04:49:02;;;;;;;33.27;18.73;;;0.90;1.00;;;;;;5041403;28;20313;-61
2022/12/04 04:51:32;;;;;;;31.03;18.27;;;0.90;1.00;;;;;;5038098;28;20728;-61
2022/12/04 04:54:04;;;;;;;31.90;18.07;;;0.90;1.00;;;;;;5040848;28;20278;-61
2022/12/04 04:56:31;;;;;;;32.07;18.30;;;0.90;1.00;;;;;;5042717;28;20764;-61
2022/12/04 04:58:58;;;;;;;31.40;17.83;;;0.90;1.00;;;;;;5039457;28;20192;-61
2022/12/04 05:01:27;;;;;;;36.10;19.50;;;0.90;1.00;;;;;;5041186;28;20278;-65
2022/12/04 05:03:54;;;;;;;34.63;18.97;;;1.30;1.00;;;;;;5042386;28;20306;-61
2022/12/04 05:06:21;;;;;;;36.17;18.90;;;0.90;1.00;;;;;;5039702;28;20204;-61
2022/12/04 05:08:48;;;;;;;33.47;18.70;;;0.90;1.00;;;;;;5057047;28;20219;-61
2022/12/04 05:11:15;;;;;;;35.23;20.47;;;0.90;1.00;;;;;;5039604;28;20229;-66
2022/12/04 05:13:43;;;;;;;33.30;19.53;;;1.00;1.00;;;;;;5036877;28;20655;-61
2022/12/04 05:16:13;;;;;;;33.80;19.33;;;0.90;1.00;;;;;;5040866;28;20249;-61
2022/12/04 05:19:52;;;;;;;33.87;17.67;;;0.90;1.00;;;;;;5043772;28;20192;-62
2022/12/04 05:21:28;;;;;;;31.07;17.83;;;0.90;1.00;;;;;;5043752;28;20207;-61
2022/12/04 05:23:55;;;;;;;35.07;19.23;;;0.90;1.00;;;;;;5039927;28;20188;-61
2022/12/04 05:26:22;;;;;;;31.23;18.27;;;0.90;1.00;;;;;;5041175;28;20275;-61
2022/12/04 05:28:49;;;;;;;30.83;17.90;;;0.90;1.00;;;;;;5041631;28;20786;-61
2022/12/04 05:31:17;;;;;;;30.40;16.70;;;0.90;1.00;;;;;;5042104;28;21499;-61
2022/12/04 05:33:43;;;;;;;30.77;17.87;;;1.00;1.00;;;;;;5039190;28;20659;-61
2022/12/04 05:36:12;;;;;;;30.83;17.00;;;0.90;1.00;;;;;;5043460;28;20191;-64
2022/12/04 05:38:39;;;;;;;31.60;18.03;;;0.90;1.00;;;;;;5038429;28;20236;-62
2022/12/04 05:41:06;;;;;;;30.07;17.27;;;1.00;1.00;;;;;;5040415;28;20199;-62
2022/12/04 05:43:34;;;;;;;27.70;16.63;;;0.90;1.00;;;;;;5041483;28;20234;-62
2022/12/04 05:46:05;;;;;;;30.93;17.67;;;1.00;1.00;;;;;;5040548;28;20205;-61
2022/12/04 05:48:34;;;;;;;29.40;17.43;;;1.00;1.00;;;;;;5021682;28;20286;-62
2022/12/04 05:51:06;;;;;;;30.53;17.57;;;1.00;1.00;;;;;;5041542;28;20209;-61
2022/12/04 05:53:33;;;;;;;30.23;16.83;;;1.00;1.00;;;;;;5042470;28;20191;-60
2022/12/04 05:56:01;;;;;;;34.17;17.93;;;0.90;1.00;;;;;;5042355;28;20196;-61
2022/12/04 05:58:29;;;;;;;32.00;17.07;;;1.00;1.00;;;;;;5040719;28;20831;-61
2022/12/04 06:00:56;;;;;;;31.50;17.70;;;1.00;1.00;;;;;;5041308;28;20604;-62
2022/12/04 06:03:23;;;;;;;27.97;16.83;;;1.00;1.00;;;;;;5039119;28;20203;-60
2022/12/04 06:05:50;;;;;;;28.00;16.37;;;1.00;1.00;;;;;;5044648;28;20434;-60
2022/12/04 06:08:17;;;;;;;27.67;15.87;;;1.00;1.00;;;;;;5045862;28;20194;-62
2022/12/04 06:10:44;;;;;;;26.07;15.10;;;1.00;1.00;;;;;;5058594;28;20215;-60
2022/12/04 06:13:11;;;;;;;26.03;15.43;;;1.00;1.00;;;;;;5043076;28;20598;-62
2022/12/04 06:15:39;;;;;;;27.73;16.03;;;1.00;1.00;;;;;;5046985;28;20176;-61
2022/12/04 06:18:06;;;;;;;27.97;16.80;;;1.10;1.00;;;;;;5062535;28;20280;-64
2022/12/04 06:20:33;;;;;;;29.70;16.00;;;1.10;1.00;;;;;;5044886;28;20305;-62
2022/12/04 06:23:01;;;;;;;27.77;15.73;;;1.10;1.00;;;;;;5046358;28;20282;-59
2022/12/04 06:25:28;;;;;;;26.83;15.70;;;1.10;1.00;;;;;;5045445;28;20501;-59
2022/12/04 06:27:54;;;;;;;26.67;15.67;;;1.10;1.00;;;;;;5042752;28;20194;-59
2022/12/04 06:30:22;;;;;;;24.70;15.03;;;1.10;1.00;;;;;;5059362;28;20220;-59
2022/12/04 06:32:49;;;;;;;26.27;15.83;;;1.10;1.00;;;;;;5036041;28;20213;-62
2022/12/04 06:35:16;;;;;;;26.17;16.23;;;1.10;1.00;;;;;;5042422;28;20676;-64
2022/12/04 06:37:43;;;;;;;29.00;16.70;;;1.10;1.00;;;;;;5045619;28;20598;-64
2022/12/04 06:40:10;;;;;;;26.37;16.80;;;1.20;1.00;;;;;;5059456;28;20802;-64
2022/12/04 06:42:37;;;;;;;31.53;18.77;;;1.20;1.00;;;;;;5044616;28;20183;-64
2022/12/04 06:45:05;;;;;;;27.33;16.57;;;1.10;1.00;;;;;;5062850;28;20188;-63
2022/12/04 06:47:34;;;;;;;41.47;21.60;;;1.20;1.00;;;;;;5047232;28;20192;-62
2022/12/04 06:50:01;;;;;;;20.10;13.23;;;1.20;1.00;;;;;;5041178;28;20235;-63
2022/12/04 06:52:28;;;;;;;21.23;13.73;;;1.20;1.00;;;;;;5043190;28;20223;-64
2022/12/04 06:54:55;;;;;;;25.27;15.43;;;1.30;1.00;;;;;;5054221;28;20197;-65
2022/12/04 06:57:22;;;;;;;21.47;14.63;;;1.20;1.00;;;;;;5041428;28;20188;-64
2022/12/04 06:59:49;;;;;;;22.67;13.77;;;1.20;1.00;;;;;;5042226;28;20219;-64
2022/12/04 07:02:16;;;;;;;22.20;14.60;;;1.30;1.00;;;;;;5045818;28;20230;-64
2022/12/04 07:04:44;;;;;;;23.87;15.07;;;1.30;1.00;;;;;;5043875;28;20595;-64
2022/12/04 07:07:11;;;;;;;25.13;14.67;;;1.30;1.00;;;;;;5045556;28;20215;-64
2022/12/04 07:09:38;;;;;;;20.17;13.63;;;1.30;1.00;;;;;;5041913;28;20210;-64
2022/12/04 07:12:05;;;;;;;20.90;13.67;;;1.30;1.00;;;;;;5041590;28;20199;-64
2022/12/04 07:14:32;;;;;;;22.10;13.90;;;1.30;1.00;;;;;;5038805;28;20319;-64
2022/12/04 07:16:59;;;;;;;23.27;15.17;;;1.40;1.00;;;;;;5040270;28;20187;-63
2022/12/04 07:19:26;;;;;;;22.73;13.73;;;1.30;1.00;;;;;;5045027;28;20211;-63
2022/12/04 07:21:52;;;;;;;23.80;13.83;;;1.30;1.00;;;;;;5041581;28;20223;-63
2022/12/04 07:24:19;;;;;;;24.77;14.27;;;1.30;1.00;;;;;;5043762;28;20282;-63
2022/12/04 07:26:46;;;;;;;23.33;14.33;;;1.40;1.00;;;;;;5040387;28;20278;-73
2022/12/04 07:29:13;;;;;;;21.53;14.40;;;1.40;1.00;;;;;;5027097;28;20191;-63
2022/12/04 07:31:40;;;;;;;24.00;14.30;;;1.40;1.00;;;;;;5039789;28;20295;-64
2022/12/04 07:34:08;;;;;;;24.10;14.53;;;1.40;1.00;;;;;;5042849;28;20259;-63
2022/12/04 07:36:34;;;;;;;23.50;14.90;;;1.40;1.00;;;;;;5042011;28;20231;-63
2022/12/04 07:39:01;;;;;;;19.67;12.63;;;1.40;1.00;;;;;;5043920;28;20758;-64
2022/12/04 07:41:30;;;;;;;20.73;13.47;;;1.40;1.00;;;;;;5043949;28;20204;-63
2022/12/04 07:44:00;;;;;;;24.23;14.83;;;1.40;1.00;;;;;;5040871;28;20200;-62
2022/12/04 07:46:28;;;;;;;26.30;15.60;;;1.40;1.00;;;;;;5041018;28;20207;-62
2022/12/04 07:48:56;;;;;;;28.03;16.47;;;1.40;1.00;;;;;;5043123;28;20718;-64
2022/12/04 07:51:26;;;;;;;23.23;14.67;;;1.40;1.00;;;;;;5043545;28;20215;-67
2022/12/04 07:53:53;;;;;;;26.23;15.97;;;1.50;1.00;;;;;;5043660;28;20563;-65
2022/12/04 07:56:20;;;;;;;21.70;14.23;;;1.50;1.00;;;;;;5041635;28;20853;-64
2022/12/04 07:58:47;;;;;;;24.43;14.33;;;1.50;1.00;;;;;;5044459;28;20198;-62
2022/12/04 08:01:21;;;;;;;24.90;15.00;;;1.50;1.00;;;;;;5040267;28;20253;-63
2022/12/04 08:03:50;;;;;;;21.77;13.17;;;1.50;1.00;;;;;;5045105;28;20199;-63
2022/12/04 08:06:19;;;;;;;25.17;15.47;;;1.50;1.00;;;;;;5045664;28;20706;-64
2022/12/04 08:08:47;;;;;;;23.10;14.73;;;1.50;1.00;;;;;;5045640;28;20245;-63
2022/12/04 08:11:17;;;;;;;22.60;13.93;;;1.60;1.00;;;;;;5042142;28;20253;-64
2022/12/04 08:13:44;;;;;;;24.00;14.83;;;1.60;1.00;;;;;;5040477;28;20613;-63
2022/12/04 08:16:12;;;;;;;22.63;14.97;;;1.60;1.00;;;;;;5041384;28;20282;-62
2022/12/04 08:18:41;;;;;;;22.77;14.10;;;1.60;1.00;;;;;;5044094;28;20183;-64
2022/12/04 08:21:10;;;;;;;23.97;15.00;;;1.70;1.00;;;;;;5042336;28;20269;-64
2022/12/04 08:23:39;;;;;;;27.47;16.60;;;1.60;1.00;;;;;;5042609;28;20824;-64
2022/12/04 08:26:06;;;;;;;28.70;16.03;;;1.60;1.00;;;;;;5044055;28;20200;-64
2022/12/04 08:28:34;;;;;;;24.40;15.23;;;1.60;1.00;;;;;;5041175;28;20708;-64
2022/12/04 08:31:11;;;;;;;25.87;15.67;;;1.70;1.00;;;;;;5040746;28;20298;-68
2022/12/04 08:33:39;;;;;;;21.37;14.50;;;1.70;1.00;;;;;;5042244;28;20191;-65
2022/12/04 08:36:08;;;;;;;24.23;14.13;;;1.70;1.00;;;;;;5041634;28;20687;-64
2022/12/04 08:38:35;;;;;;;20.03;12.90;;;1.80;1.00;;;;;;5040715;28;20616;-63
2022/12/04 08:41:05;;;;;;;20.07;14.27;;;1.70;1.00;;;;;;5037391;28;20230;-67
2022/12/04 08:43:32;;;;;;;21.23;12.77;;;1.80;1.00;;;;;;5044030;28;20241;-64
2022/12/04 08:46:04;;;;;;;20.73;13.23;;;1.80;1.00;;;;;;5038541;28;20199;-63
2022/12/04 08:48:31;;;;;;;22.60;13.20;;;1.80;1.00;;;;;;5056338;28;20235;-62
2022/12/04 08:50:59;;;;;;;20.77;13.63;;;1.80;1.00;;;;;;5043693;28;20962;-64
2022/12/04 08:53:26;;;;;;;18.67;13.17;;;1.80;1.00;;;;;;5035532;28;20199;-64
2022/12/04 08:55:53;;;;;;;23.10;14.70;;;1.90;1.00;;;;;;5036967;28;20188;-63
2022/12/04 08:58:20;;;;;;;19.70;13.87;;;1.90;1.00;;;;;;5042677;28;20187;-64
2022/12/04 09:00:47;;;;;;;19.53;13.10;;;1.90;1.00;;;;;;5043967;28;20663;-64
2022/12/04 09:03:17;;;;;;;21.13;13.37;;;1.80;1.00;;;;;;5043500;28;20278;-63
2022/12/04 09:05:44;;;;;;;21.43;14.13;;;1.90;1.00;;;;;;5043380;28;20298;-64
2022/12/04 09:08:15;;;;;;;22.03;14.63;;;1.90;1.00;;;;;;5039848;28;20211;-64
2022/12/04 09:10:43;;;;;;;20.87;13.60;;;1.90;1.00;;;;;;5042310;28;20191;-64
2022/12/04 09:13:10;;;;;;;21.33;13.53;;;2.00;1.00;;;;;;5039645;28;20592;-64
2022/12/04 09:15:40;;;;;;;18.50;13.10;;;1.90;1.00;;;;;;5041977;28;20275;-63
2022/12/04 09:18:08;;;;;;;20.70;13.53;;;2.00;1.00;;;;;;5042432;28;20199;-64
2022/12/04 09:20:35;;;;;;;16.97;12.20;;;2.00;1.00;;;;;;5043754;28;20269;-64
2022/12/04 09:23:04;;;;;;;18.37;13.10;;;2.10;1.00;;;;;;5041845;28;20209;-64
2022/12/04 09:25:35;;;;;;;19.23;13.27;;;2.00;1.00;;;;;;5056869;28;20195;-64
2022/12/04 09:28:03;;;;;;;20.03;12.83;;;2.10;1.00;;;;;;5042650;28;20183;-63
2022/12/04 09:30:30;;;;;;;18.73;12.60;;;2.10;1.00;;;;;;5041559;28;20287;-63
2022/12/04 09:32:57;;;;;;;17.13;11.50;;;2.10;1.00;;;;;;5043416;28;20227;-63
2022/12/04 09:35:24;;;;;;;18.20;12.50;;;2.10;1.00;;;;;;5034466;28;20254;-65
2022/12/04 09:37:51;;;;;;;19.47;12.27;;;2.10;1.00;;;;;;5040576;28;20188;-65
2022/12/04 09:40:27;;;;;;;17.53;12.67;;;2.10;1.00;;;;;;5043537;28;20180;-64
2022/12/04 09:43:30;;;;;;;18.83;12.60;;;2.10;1.00;;;;;;5057125;28;20720;-65
2022/12/04 09:46:08;;;;;;;15.77;11.27;;;2.20;1.00;;;;;;5045437;28;20220;-64
2022/12/04 09:48:39;;;;;;;17.13;12.90;;;2.20;1.00;;;;;;5060877;28;20227;-64
2022/12/04 09:51:17;;;;;;;19.90;12.97;;;2.20;1.00;;;;;;5058576;28;20613;-65
2022/12/04 09:53:58;;;;;;;18.97;12.00;;;2.20;1.00;;;;;;5022593;28;20205;-64
2022/12/04 09:56:29;;;;;;;18.47;11.83;;;2.30;1.00;;;;;;5037453;28;20275;-65
2022/12/04 09:59:10;;;;;;;19.80;12.87;;;2.30;1.00;;;;;;5040494;28;20613;-65
2022/12/04 10:01:46;;;;;;;16.20;12.07;;;2.30;1.00;;;;;;5044900;28;20199;-64
2022/12/04 10:04:14;;;;;;;18.07;11.73;;;2.30;1.00;;;;;;5045270;28;20230;-64
2022/12/04 10:06:56;;;;;;;17.23;11.90;;;2.30;1.00;;;;;;5034232;28;20196;-65
2022/12/04 10:09:49;;;;;;;17.50;12.87;;;2.30;1.00;;;;;;5041332;28;20199;-66
2022/12/04 10:12:24;;;;;;;20.00;11.67;;;2.40;1.00;;;;;;5057104;28;20214;-63
2022/12/04 10:15:20;;;;;;;18.20;12.33;;;2.40;1.00;;;;;;5045418;28;20184;-64
2022/12/04 10:18:06;;;;;;;19.20;11.97;;;2.40;1.00;;;;;;5044074;28;20215;-65
2022/12/04 10:20:33;;;;;;;19.43;12.17;;;2.40;1.00;;;;;;5046178;28;20215;-65
2022/12/04 10:23:10;;;;;;;19.33;13.03;;;2.30;1.00;;;;;;5043954;28;20671;-69
2022/12/04 10:25:41;;;;;;;19.47;12.27;;;2.30;1.00;;;;;;5041159;28;20261;-65
2022/12/04 10:28:20;;;;;;;19.63;13.50;;;2.30;1.00;;;;;;5046749;28;20200;-64
2022/12/04 10:30:49;;;;;;;18.30;12.00;;;2.30;1.00;;;;;;5044278;28;20761;-64
2022/12/04 10:33:35;;;;;;;18.30;12.53;;;2.30;1.00;;;;;;5043753;28;20225;-65
2022/12/04 10:36:04;;;;;;;20.27;12.47;;;2.30;1.00;;;;;;5055904;28;20544;-67
2022/12/04 10:38:44;;;;;;;20.90;12.67;;;2.30;1.00;;;;;;5036964;28;20199;-64
2022/12/04 10:41:11;;;;;;;19.87;11.93;;;2.30;1.00;;;;;;5034352;28;20677;-66
2022/12/04 10:43:48;;;;;;;24.40;13.17;;;2.30;1.00;;;;;;5044065;28;20194;-65
2022/12/04 10:46:23;;;;;;;24.17;12.80;;;2.30;1.00;;;;;;5041982;28;20277;-65
2022/12/04 10:48:56;;;;;;;22.30;12.70;;;2.30;1.00;;;;;;5041440;28;20233;-65
2022/12/04 10:51:23;;;;;;;18.93;12.07;;;2.30;1.00;;;;;;5045132;28;20610;-65
2022/12/04 10:53:50;;;;;;;19.57;12.27;;;2.40;1.00;;;;;;5041809;28;20195;-66
2022/12/04 10:56:24;;;;;;;19.47;13.23;;;2.30;1.00;;;;;;5041837;28;20184;-65
2022/12/04 10:59:00;;;;;;;20.17;13.37;;;2.40;1.00;;;;;;5036466;28;20192;-64
2022/12/04 11:01:29;;;;;;;18.30;12.50;;;2.40;1.00;;;;;;5031238;28;20199;-65
2022/12/04 11:04:02;;;;;;;21.03;12.70;;;2.40;1.00;;;;;;5033462;28;20219;-63
2022/12/04 11:06:29;;;;;;;17.37;11.53;;;2.40;1.00;;;;;;5055003;28;20290;-63
2022/12/04 11:08:58;;;;;;;18.37;11.87;;;2.40;1.00;;;;;;5041548;28;20203;-62
2022/12/04 11:11:32;;;;;;;17.23;11.53;;;2.50;1.00;;;;;;5042156;28;20277;-63
2022/12/04 11:14:21;;;;;;;16.77;11.87;;;2.50;1.00;;;;;;5044527;28;20184;-62
2022/12/04 11:16:59;;;;;;;16.17;11.50;;;2.50;1.00;;;;;;5045352;28;20681;-63
2022/12/04 11:19:29;;;;;;;16.53;11.67;;;2.50;1.00;;;;;;5046020;28;20283;-63
2022/12/04 11:22:04;;;;;;;19.73;11.20;;;2.50;1.00;;;;;;5045772;28;20198;-63
2022/12/04 11:24:37;;;;;;;20.43;12.30;;;2.50;1.00;;;;;;5041498;28;20620;-63
2022/12/04 11:27:06;;;;;;;17.17;11.50;;;2.50;1.00;;;;;;5037653;28;20296;-63
2022/12/04 11:29:40;;;;;;;18.63;12.30;;;2.60;1.00;;;;;;5041948;28;20668;-65
2022/12/04 11:32:21;;;;;;;18.60;12.80;;;2.60;1.00;;;;;;5044056;28;20293;-65
2022/12/04 11:34:50;;;;;;;18.67;11.07;;;2.70;1.00;;;;;;5038610;28;20287;-63
2022/12/04 11:37:24;;;;;;;12.53;10.27;;;2.60;1.00;;;;;;5058518;28;20206;-65
2022/12/04 11:39:52;;;;;;;17.10;10.90;;;2.60;1.00;;;;;;5039996;28;20199;-65
2022/12/04 11:42:26;;;;;;;17.07;10.77;;;2.60;1.00;;;;;;5039889;28;20219;-66
2022/12/04 11:44:58;;;;;;;17.70;11.70;;;2.60;1.00;;;;;;5042786;28;20283;-65
2022/12/04 11:47:29;;;;;;;15.33;10.07;;;2.70;1.00;;;;;;5043294;28;20200;-65
2022/12/04 11:50:25;;;;;;;16.87;11.73;;;2.70;1.00;;;;;;5044400;28;20876;-63
2022/12/04 11:53:17;;;;;;;15.33;10.63;;;2.70;1.00;;;;;;5042819;28;20290;-63
2022/12/04 11:55:52;;;;;;;17.37;11.70;;;2.70;1.00;;;;;;5038960;28;20191;-63
2022/12/04 11:58:44;;;;;;;17.67;11.23;;;2.70;1.00;;;;;;5037010;28;20191;-62
2022/12/04 12:01:21;;;;;;;13.97;9.90;;;2.70;1.00;;;;;;5035903;28;20188;-62
2022/12/04 12:04:22;;;;;;;14.80;11.00;;;2.70;1.00;;;;;;5041748;28;20664;-63
2022/12/04 12:07:07;;;;;;;15.47;10.27;;;2.70;1.00;;;;;;5042336;28;20223;-62
2022/12/04 12:09:40;;;;;;;12.73;8.97;;;2.70;1.00;;;;;;5042106;28;20196;-62
2022/12/04 12:12:30;;;;;;;17.67;10.90;;;2.70;1.00;;;;;;5045771;28;20215;-62
2022/12/04 12:15:09;;;;;;;15.80;10.23;;;2.70;1.00;;;;;;5042122;28;20534;-64
2022/12/04 12:17:56;;;;;;;19.57;11.30;;;2.80;1.00;;;;;;5039486;28;20227;-61
2022/12/04 12:20:39;;;;;;;15.07;9.83;;;2.80;1.00;;;;;;5028706;28;20199;-63
2022/12/04 12:23:12;;;;;;;18.13;12.80;;;2.70;1.00;;;;;;5037434;28;20200;-62
2022/12/04 12:26:07;;;;;;;14.60;9.53;;;2.80;1.00;;;;;;5041679;28;20199;-62
2022/12/04 12:28:46;;;;;;;16.13;11.17;;;2.70;1.00;;;;;;5057964;28;20235;-62
2022/12/04 12:31:32;;;;;;;19.23;12.70;;;2.80;1.00;;;;;;5039719;28;20197;-65
2022/12/04 12:34:18;;;;;;;16.13;11.30;;;2.80;1.00;;;;;;5040711;28;20222;-65
2022/12/04 12:36:50;;;;;;;17.30;11.73;;;2.80;1.00;;;;;;5043886;28;20995;-64
2022/12/04 12:39:49;;;;;;;19.93;13.37;;;2.80;1.00;;;;;;5043038;28;20719;-64
2022/12/04 12:42:23;;;;;;;19.30;11.27;;;2.80;1.00;;;;;;5038982;28;20544;-63
2022/12/04 12:44:56;;;;;;;18.73;12.00;;;2.80;1.00;;;;;;5054043;28;20700;-63
2022/12/04 12:47:29;;;;;;;18.37;12.30;;;2.80;1.00;;;;;;5041737;28;20281;-64
2022/12/04 12:50:14;;;;;;;18.67;12.57;;;2.80;1.00;;;;;;5041403;28;20625;-65
2022/12/04 12:52:58;;;;;;;21.00;13.20;;;2.80;1.00;;;;;;5042090;28;20214;-65
2022/12/04 12:55:34;;;;;;;18.47;11.90;;;2.80;1.00;;;;;;5052599;28;20750;-65
2022/12/04 12:58:07;;;;;;;19.50;13.17;;;2.80;1.00;;;;;;5034544;28;20249;-66
2022/12/04 13:00:43;;;;;;;20.17;13.67;;;2.80;1.00;;;;;;5056535;28;20277;-63
2022/12/04 13:03:23;;;;;;;19.90;12.67;;;2.80;1.00;;;;;;5043735;28;20296;-64
2022/12/04 13:05:54;;;;;;;20.67;13.97;;;2.80;1.00;;;;;;5041188;28;20215;-64
2022/12/04 13:08:39;;;;;;;24.20;14.47;;;2.80;1.00;;;;;;5019501;28;20206;-64
2022/12/04 13:11:20;;;;;;;21.57;13.67;;;2.80;1.00;;;;;;5038949;28;20639;-64
2022/12/04 13:13:56;;;;;;;21.70;13.63;;;2.80;1.00;;;;;;5048777;28;20223;-65
2022/12/04 13:16:49;;;;;;;21.73;13.33;;;2.80;1.00;;;;;;5041431;28;20731;-64
2022/12/04 13:19:42;;;;;;;20.83;13.63;;;2.80;1.00;;;;;;5056687;28;20563;-64
2022/12/04 13:22:34;;;;;;;20.37;12.93;;;2.80;1.00;;;;;;5018962;28;20666;-64
2022/12/04 13:25:23;;;;;;;20.83;12.90;;;2.80;1.00;;;;;;5044302;28;20676;-65
2022/12/04 13:28:05;;;;;;;20.30;12.40;;;2.80;1.00;;;;;;5042958;28;20274;-65